Time;durP1;ratioP1;P1;durP2;ratioP2;P2;SDS_P1;SDS_P2;PMS_P1;PMS_P2;Temp;Humidity;BMP_temperature;BMP_pressure;BME280_temperature;BME280_humidity;BME280_pressure;Samples;Min_cycle;Max_cycle;Signal;HPM_P1;HPM_P2
2024/01/11 00:01:15;;;;;;;170.18;161.52;;;;;;;;;;5026493;28;20455;-61
2024/01/11 00:03:42;;;;;;;179.88;170.77;;;;;;;;;;5029042;28;20426;-61
2024/01/11 00:06:09;;;;;;;167.23;158.77;;;;;;;;;;5032971;28;20492;-61
2024/01/11 00:08:37;;;;;;;169.95;161.40;;;;;;;;;;5036389;28;20442;-61
2024/01/11 00:11:04;;;;;;;131.35;124.60;;;;;;;;;;5037907;28;20542;-61
2024/01/11 00:13:31;;;;;;;113.78;107.93;;;;;;;;;;5043247;28;20455;-61
2024/01/11 00:15:59;;;;;;;145.63;138.10;;;;;;;;;;5033246;28;20434;-62
2024/01/11 00:18:26;;;;;;;156.50;148.65;;;;;;;;;;5027728;28;20438;-62
2024/01/11 00:20:56;;;;;;;158.50;150.55;;;;;;;;;;5033959;28;20437;-62
2024/01/11 00:23:26;;;;;;;137.82;130.77;;;;;;;;;;5037331;28;20441;-62
2024/01/11 00:25:54;;;;;;;149.50;142.00;;;;;;;;;;5042374;28;20791;-62
2024/01/11 00:28:21;;;;;;;144.45;137.13;;;;;;;;;;5032879;28;21044;-62
2024/01/11 00:30:48;;;;;;;153.57;145.67;;;;;;;;;;5037727;28;20440;-62
2024/01/11 00:33:15;;;;;;;103.75;98.35;;;;;;;;;;5029832;28;20426;-62
2024/01/11 00:35:43;;;;;;;109.28;103.15;;;;;;;;;;5024846;28;20441;-62
2024/01/11 00:38:10;;;;;;;130.55;123.75;;;;;;;;;;5026559;28;20442;-62
2024/01/11 00:40:37;;;;;;;187.80;178.27;;;;;;;;;;5024472;28;20426;-62
2024/01/11 00:43:05;;;;;;;198.05;187.80;;;;;;;;;;5024617;28;20462;-62
2024/01/11 00:45:32;;;;;;;200.68;190.35;;;;;;;;;;5028783;28;20568;-62
2024/01/11 00:48:02;;;;;;;208.70;197.80;;;;;;;;;;5022396;28;20445;-62
2024/01/11 00:50:30;;;;;;;204.43;193.93;;;;;;;;;;5025619;28;20451;-62
2024/01/11 00:52:57;;;;;;;212.43;201.45;;;;;;;;;;5029560;28;20441;-62
2024/01/11 00:55:24;;;;;;;230.30;218.38;;;;;;;;;;5024425;28;20431;-62
2024/01/11 00:57:51;;;;;;;196.65;186.38;;;;;;;;;;5026787;28;20435;-62
2024/01/11 01:00:19;;;;;;;204.63;194.10;;;;;;;;;;5029170;28;20437;-62
2024/01/11 01:02:46;;;;;;;205.27;194.63;;;;;;;;;;5032888;28;20433;-62
2024/01/11 01:05:13;;;;;;;206.32;195.57;;;;;;;;;;5037457;28;20429;-62
2024/01/11 01:07:41;;;;;;;202.13;191.73;;;;;;;;;;5038008;28;20431;-62
2024/01/11 01:10:09;;;;;;;208.85;197.88;;;;;;;;;;5030481;28;20445;-62
2024/01/11 01:12:36;;;;;;;202.73;192.27;;;;;;;;;;5044356;28;20432;-62
2024/01/11 01:15:03;;;;;;;199.05;188.73;;;;;;;;;;5036131;28;20529;-62
2024/01/11 01:17:30;;;;;;;196.77;186.60;;;;;;;;;;5033581;28;20430;-62
2024/01/11 01:19:57;;;;;;;219.77;208.60;;;;;;;;;;5034359;28;20998;-62
2024/01/11 01:22:27;;;;;;;189.35;179.65;;;;;;;;;;5036947;28;20446;-62
2024/01/11 01:24:54;;;;;;;187.70;178.07;;;;;;;;;;5040725;28;20960;-62
2024/01/11 01:27:21;;;;;;;183.63;174.23;;;;;;;;;;5037979;28;20464;-62
2024/01/11 01:29:48;;;;;;;188.27;178.55;;;;;;;;;;5045371;28;20954;-62
2024/01/11 01:32:18;;;;;;;187.67;177.97;;;;;;;;;;5041047;28;20489;-62
2024/01/11 01:34:48;;;;;;;183.02;173.65;;;;;;;;;;5043132;28;20436;-62
2024/01/11 01:37:15;;;;;;;179.48;170.25;;;;;;;;;;5036352;28;20492;-63
2024/01/11 01:39:43;;;;;;;184.65;174.00;;;;;;;;;;5034564;28;20434;-62
2024/01/11 01:42:10;;;;;;;174.57;165.57;;;;;;;;;;5045835;28;20434;-62
2024/01/11 01:44:40;;;;;;;177.02;167.52;;;;;;;;;;5047997;28;20568;-62
2024/01/11 01:47:09;;;;;;;170.95;162.18;;;;;;;;;;5044734;28;20470;-62
2024/01/11 01:49:40;;;;;;;165.18;156.70;;;;;;;;;;5037880;28;20449;-62
2024/01/11 01:52:08;;;;;;;161.52;153.25;;;;;;;;;;5033383;28;20439;-62
2024/01/11 01:54:35;;;;;;;152.55;144.75;;;;;;;;;;5043689;28;20522;-62
2024/01/11 01:57:03;;;;;;;68.10;63.70;;;;;;;;;;5036157;28;20954;-62
2024/01/11 01:59:31;;;;;;;92.57;87.63;;;;;;;;;;5035065;28;20535;-62
2024/01/11 02:01:58;;;;;;;155.23;147.20;;;;;;;;;;5033019;28;20429;-62
2024/01/11 02:04:26;;;;;;;155.60;147.73;;;;;;;;;;5042044;28;20422;-62
2024/01/11 02:06:55;;;;;;;152.60;144.73;;;;;;;;;;5040293;28;20429;-62
2024/01/11 02:09:23;;;;;;;153.82;145.95;;;;;;;;;;5035470;28;20431;-62
2024/01/11 02:11:53;;;;;;;155.63;147.70;;;;;;;;;;5042843;28;20794;-62
2024/01/11 02:14:21;;;;;;;204.90;194.52;;;;;;;;;;5040325;28;20829;-62
2024/01/11 02:16:50;;;;;;;178.50;169.32;;;;;;;;;;5037025;28;20430;-62
2024/01/11 02:19:22;;;;;;;184.05;174.65;;;;;;;;;;5041597;28;20916;-62
2024/01/11 02:21:53;;;;;;;179.68;169.95;;;;;;;;;;5035525;28;20429;-62
2024/01/11 02:24:20;;;;;;;194.32;182.18;;;;;;;;;;5038044;28;20465;-62
2024/01/11 02:27:10;;;;;;;185.20;175.75;;;;;;;;;;5036620;28;20433;-62
2024/01/11 02:29:37;;;;;;;190.55;180.82;;;;;;;;;;5045990;28;20469;-62
2024/01/11 02:32:06;;;;;;;191.27;180.15;;;;;;;;;;5037292;28;20432;-62
2024/01/11 02:34:36;;;;;;;181.03;171.73;;;;;;;;;;5038673;28;20902;-62
2024/01/11 02:37:05;;;;;;;194.50;184.48;;;;;;;;;;5045953;28;20437;-62
2024/01/11 02:39:32;;;;;;;189.03;179.33;;;;;;;;;;5040574;28;20441;-62
2024/01/11 02:42:00;;;;;;;191.07;181.25;;;;;;;;;;5043416;28;20429;-62
2024/01/11 02:44:27;;;;;;;177.35;168.25;;;;;;;;;;5044573;28;20429;-62
2024/01/11 02:46:56;;;;;;;195.90;185.80;;;;;;;;;;5043436;28;20429;-62
2024/01/11 02:49:23;;;;;;;170.07;161.00;;;;;;;;;;5037744;28;20426;-62
2024/01/11 02:51:50;;;;;;;167.10;158.30;;;;;;;;;;5038087;28;20433;-62
2024/01/11 02:54:18;;;;;;;171.48;162.45;;;;;;;;;;5033228;28;20439;-62
2024/01/11 02:56:45;;;;;;;174.50;165.52;;;;;;;;;;5041663;28;20479;-62
2024/01/11 02:59:13;;;;;;;168.40;159.48;;;;;;;;;;5040072;28;20444;-62
2024/01/11 03:01:40;;;;;;;152.82;144.60;;;;;;;;;;5037986;28;20482;-62
2024/01/11 03:04:10;;;;;;;159.05;150.52;;;;;;;;;;5035176;28;20431;-62
2024/01/11 03:06:37;;;;;;;161.38;152.88;;;;;;;;;;5033943;28;20439;-62
2024/01/11 03:09:05;;;;;;;179.05;169.60;;;;;;;;;;5028165;28;20433;-62
2024/01/11 03:11:32;;;;;;;176.85;166.52;;;;;;;;;;5031930;28;20500;-63
2024/01/11 03:14:02;;;;;;;164.82;156.02;;;;;;;;;;5038051;28;20437;-62
2024/01/11 03:16:30;;;;;;;172.30;163.38;;;;;;;;;;5041787;28;20447;-62
2024/01/11 03:18:57;;;;;;;205.88;195.27;;;;;;;;;;5046013;28;20433;-62
2024/01/11 03:21:24;;;;;;;176.00;165.20;;;;;;;;;;5029772;28;21020;-62
2024/01/11 03:23:51;;;;;;;187.50;177.75;;;;;;;;;;5042920;28;20813;-62
2024/01/11 03:26:19;;;;;;;169.52;160.60;;;;;;;;;;5042592;28;21011;-62
2024/01/11 03:28:49;;;;;;;184.00;174.37;;;;;;;;;;5032139;28;20430;-62
2024/01/11 03:31:16;;;;;;;185.48;175.80;;;;;;;;;;5041038;28;20442;-62
2024/01/11 03:33:49;;;;;;;193.05;183.07;;;;;;;;;;5040823;28;21142;-62
2024/01/11 03:36:17;;;;;;;181.70;172.20;;;;;;;;;;5031678;28;20437;-62
2024/01/11 03:38:44;;;;;;;167.95;159.13;;;;;;;;;;5034686;28;20533;-62
2024/01/11 03:41:12;;;;;;;188.95;179.20;;;;;;;;;;5043504;28;20439;-62
2024/01/11 03:43:40;;;;;;;161.10;152.52;;;;;;;;;;5040574;28;20431;-62
2024/01/11 03:46:07;;;;;;;180.60;171.15;;;;;;;;;;5032764;28;20426;-62
2024/01/11 03:48:37;;;;;;;174.55;165.35;;;;;;;;;;5045441;28;20425;-62
2024/01/11 03:51:05;;;;;;;179.45;170.15;;;;;;;;;;5029555;28;20445;-62
2024/01/11 03:53:37;;;;;;;184.13;174.48;;;;;;;;;;5028834;28;20441;-62
2024/01/11 03:56:05;;;;;;;189.95;179.98;;;;;;;;;;5026842;28;20444;-63
2024/01/11 03:58:33;;;;;;;188.10;178.27;;;;;;;;;;5028693;28;20463;-62
2024/01/11 04:01:00;;;;;;;181.27;171.73;;;;;;;;;;5030579;28;20510;-62
2024/01/11 04:03:28;;;;;;;154.18;145.88;;;;;;;;;;5033185;28;20835;-62
2024/01/11 04:05:55;;;;;;;113.85;107.40;;;;;;;;;;5030475;28;20454;-62
2024/01/11 04:08:22;;;;;;;165.05;156.18;;;;;;;;;;5026912;28;20798;-62
2024/01/11 04:10:50;;;;;;;149.38;141.40;;;;;;;;;;5033929;28;20525;-62
2024/01/11 04:13:17;;;;;;;154.70;146.60;;;;;;;;;;5029797;28;21186;-62
2024/01/11 04:15:44;;;;;;;119.95;113.72;;;;;;;;;;5034779;28;20531;-62
2024/01/11 04:18:11;;;;;;;126.25;119.75;;;;;;;;;;5042751;28;20459;-62
2024/01/11 04:20:41;;;;;;;132.93;125.93;;;;;;;;;;5028118;28;20825;-62
2024/01/11 04:23:08;;;;;;;158.95;149.48;;;;;;;;;;5037777;28;20823;-62
2024/01/11 04:25:35;;;;;;;144.45;137.02;;;;;;;;;;5035374;28;20452;-62
2024/01/11 04:28:06;;;;;;;126.13;119.35;;;;;;;;;;5034317;28;20461;-62
2024/01/11 04:30:33;;;;;;;145.60;138.10;;;;;;;;;;5039156;28;20515;-62
2024/01/11 04:33:00;;;;;;;149.88;142.05;;;;;;;;;;5045523;28;20838;-62
2024/01/11 04:35:27;;;;;;;105.90;99.93;;;;;;;;;;5045095;28;20483;-62
2024/01/11 04:37:55;;;;;;;146.40;138.27;;;;;;;;;;5046364;28;20433;-62
2024/01/11 04:40:22;;;;;;;144.30;136.85;;;;;;;;;;5032977;28;20439;-62
2024/01/11 04:42:49;;;;;;;142.15;134.82;;;;;;;;;;5036781;28;20429;-62
2024/01/11 04:45:16;;;;;;;100.18;94.53;;;;;;;;;;5041028;28;20445;-62
2024/01/11 04:47:43;;;;;;;115.97;109.57;;;;;;;;;;5036679;28;20500;-62
2024/01/11 04:50:11;;;;;;;124.25;117.43;;;;;;;;;;5028879;28;20429;-62
2024/01/11 04:52:38;;;;;;;137.23;129.93;;;;;;;;;;5033409;28;20517;-62
2024/01/11 04:55:08;;;;;;;138.90;131.43;;;;;;;;;;5026795;28;20434;-62
2024/01/11 04:57:35;;;;;;;135.73;128.50;;;;;;;;;;5037494;28;20494;-62
2024/01/11 05:00:02;;;;;;;138.82;131.35;;;;;;;;;;5036400;28;20447;-62
2024/01/11 05:02:30;;;;;;;141.15;132.98;;;;;;;;;;5039054;28;20433;-62
2024/01/11 05:04:57;;;;;;;132.52;125.40;;;;;;;;;;5034059;28;20540;-62
2024/01/11 05:07:25;;;;;;;127.60;120.78;;;;;;;;;;5035079;28;20437;-62
2024/01/11 05:09:52;;;;;;;136.27;128.98;;;;;;;;;;5036233;28;20836;-62
2024/01/11 05:12:22;;;;;;;138.85;131.40;;;;;;;;;;5040313;28;20436;-62
2024/01/11 05:14:49;;;;;;;128.13;121.20;;;;;;;;;;5037351;28;20433;-62
2024/01/11 05:17:19;;;;;;;133.55;126.43;;;;;;;;;;5044863;28;20461;-62
2024/01/11 05:19:46;;;;;;;133.18;126.07;;;;;;;;;;5047785;28;20428;-62
2024/01/11 05:22:13;;;;;;;134.93;127.53;;;;;;;;;;5037417;28;21156;-62
2024/01/11 05:24:40;;;;;;;125.47;118.63;;;;;;;;;;5034616;28;21180;-62
2024/01/11 05:27:07;;;;;;;129.45;122.35;;;;;;;;;;5043730;28;20516;-62
2024/01/11 05:29:35;;;;;;;144.63;136.77;;;;;;;;;;5035682;28;20425;-62
2024/01/11 05:32:02;;;;;;;137.63;130.27;;;;;;;;;;5038136;28;20448;-62
2024/01/11 05:34:30;;;;;;;143.95;136.02;;;;;;;;;;5040446;28;20459;-62
2024/01/11 05:36:57;;;;;;;154.13;146.10;;;;;;;;;;5044496;28;20440;-62
2024/01/11 05:39:26;;;;;;;144.60;136.95;;;;;;;;;;5043683;28;20524;-62
2024/01/11 05:41:54;;;;;;;137.90;130.52;;;;;;;;;;5040012;28;20491;-62
2024/01/11 05:44:22;;;;;;;154.30;146.05;;;;;;;;;;5043006;28;20893;-62
2024/01/11 05:46:49;;;;;;;144.02;136.57;;;;;;;;;;5048548;28;20474;-62
2024/01/11 05:49:16;;;;;;;150.43;142.57;;;;;;;;;;5039708;28;20461;-62
2024/01/11 05:51:46;;;;;;;145.70;137.93;;;;;;;;;;5044419;28;20433;-62
2024/01/11 05:54:13;;;;;;;152.90;144.77;;;;;;;;;;5033547;28;20836;-62
2024/01/11 05:56:40;;;;;;;140.95;133.50;;;;;;;;;;5039205;28;20462;-62
2024/01/11 05:59:08;;;;;;;143.40;135.77;;;;;;;;;;5045478;28;20514;-62
2024/01/11 06:01:41;;;;;;;148.20;140.32;;;;;;;;;;5044006;28;20483;-62
2024/01/11 06:04:08;;;;;;;139.00;131.63;;;;;;;;;;5047463;28;20425;-62
2024/01/11 06:06:35;;;;;;;140.77;133.23;;;;;;;;;;5046150;28;20433;-62
2024/01/11 06:09:05;;;;;;;145.88;138.18;;;;;;;;;;5040426;28;20429;-62
2024/01/11 06:11:32;;;;;;;136.85;129.52;;;;;;;;;;5040613;28;20435;-61
2024/01/11 06:14:01;;;;;;;178.47;163.53;;;;;;;;;;5038908;28;20460;-62
2024/01/11 06:16:31;;;;;;;142.55;134.95;;;;;;;;;;5037218;28;20501;-61
2024/01/11 06:18:58;;;;;;;144.43;136.73;;;;;;;;;;5038658;28;20491;-62
2024/01/11 06:21:26;;;;;;;139.45;131.90;;;;;;;;;;5040253;28;21339;-62
2024/01/11 06:23:53;;;;;;;149.52;141.75;;;;;;;;;;5040568;28;20457;-62
2024/01/11 06:26:21;;;;;;;139.37;131.77;;;;;;;;;;5041901;28;20441;-62
2024/01/11 06:28:48;;;;;;;143.10;135.55;;;;;;;;;;5045744;28;20452;-62
2024/01/11 06:31:18;;;;;;;149.10;140.30;;;;;;;;;;5044810;28;20543;-61
2024/01/11 06:33:45;;;;;;;153.88;145.85;;;;;;;;;;5038890;28;20433;-62
2024/01/11 06:36:17;;;;;;;145.18;137.50;;;;;;;;;;5039992;28;20433;-61
2024/01/11 06:38:47;;;;;;;145.00;137.35;;;;;;;;;;5044164;28;20447;-62
2024/01/11 06:41:14;;;;;;;158.23;149.90;;;;;;;;;;5037983;28;20461;-62
2024/01/11 06:43:41;;;;;;;155.93;147.80;;;;;;;;;;5042944;28;20425;-62
2024/01/11 06:46:10;;;;;;;148.75;140.98;;;;;;;;;;5043665;28;20429;-61
2024/01/11 06:48:38;;;;;;;156.35;148.15;;;;;;;;;;5040945;28;20434;-62
2024/01/11 06:51:05;;;;;;;153.65;145.70;;;;;;;;;;5033085;28;20525;-62
2024/01/11 06:53:33;;;;;;;155.05;146.98;;;;;;;;;;5044821;28;20444;-62
2024/01/11 06:56:00;;;;;;;157.52;149.35;;;;;;;;;;5038287;28;20433;-62
2024/01/11 06:58:30;;;;;;;164.00;155.60;;;;;;;;;;5035676;28;22013;-62
2024/01/11 07:00:58;;;;;;;151.18;143.38;;;;;;;;;;5042694;28;20432;-62
2024/01/11 07:03:28;;;;;;;160.85;152.52;;;;;;;;;;5042056;28;20431;-62
2024/01/11 07:05:55;;;;;;;149.65;141.88;;;;;;;;;;5032894;28;20622;-62
2024/01/11 07:08:22;;;;;;;164.85;156.50;;;;;;;;;;5033287;28;20499;-62
2024/01/11 07:10:50;;;;;;;154.18;146.18;;;;;;;;;;5033325;28;20856;-62
2024/01/11 07:13:18;;;;;;;165.10;156.60;;;;;;;;;;5032852;28;20793;-62
2024/01/11 07:15:45;;;;;;;167.35;158.77;;;;;;;;;;5037700;28;20431;-62
2024/01/11 07:18:12;;;;;;;172.23;163.38;;;;;;;;;;5041530;28;20911;-62
2024/01/11 07:20:40;;;;;;;172.63;163.75;;;;;;;;;;5046433;28;20464;-62
2024/01/11 07:23:07;;;;;;;167.27;158.73;;;;;;;;;;5046376;28;20516;-62
2024/01/11 07:25:34;;;;;;;166.52;158.05;;;;;;;;;;5040825;28;20432;-61
2024/01/11 07:28:02;;;;;;;173.45;164.55;;;;;;;;;;5041460;28;20441;-62
2024/01/11 07:30:29;;;;;;;90.97;85.72;;;;;;;;;;5031588;28;20921;-62
2024/01/11 07:32:56;;;;;;;88.28;83.03;;;;;;;;;;5032964;28;20935;-62
2024/01/11 07:35:24;;;;;;;156.95;148.80;;;;;;;;;;5038032;28;20820;-62
2024/01/11 07:37:54;;;;;;;163.07;154.68;;;;;;;;;;5043094;28;20428;-62
2024/01/11 07:40:21;;;;;;;164.98;156.45;;;;;;;;;;5041659;28;20440;-62
2024/01/11 07:42:49;;;;;;;166.50;157.93;;;;;;;;;;5034517;28;20504;-61
2024/01/11 07:45:16;;;;;;;167.20;158.70;;;;;;;;;;5044905;28;20444;-62
2024/01/11 07:47:43;;;;;;;133.35;126.10;;;;;;;;;;5045535;28;20436;-62
2024/01/11 07:50:12;;;;;;;139.60;132.17;;;;;;;;;;5043599;28;20424;-62
2024/01/11 07:52:42;;;;;;;144.45;136.45;;;;;;;;;;5029818;28;20471;-62
2024/01/11 07:55:12;;;;;;;152.77;144.40;;;;;;;;;;5027232;28;20431;-62
2024/01/11 07:57:40;;;;;;;150.10;141.93;;;;;;;;;;5036989;28;20485;-62
2024/01/11 08:00:07;;;;;;;125.95;119.13;;;;;;;;;;5036311;28;20508;-62
2024/01/11 08:02:38;;;;;;;106.00;99.88;;;;;;;;;;5041767;28;20441;-65
2024/01/11 08:05:05;;;;;;;89.18;83.50;;;;;;;;;;5042836;28;20621;-62
2024/01/11 08:07:39;;;;;;;106.10;100.07;;;;;;;;;;5041183;28;20437;-62
2024/01/11 08:10:13;;;;;;;117.53;110.70;;;;;;;;;;5036763;28;20507;-62
2024/01/11 08:12:40;;;;;;;108.10;102.00;;;;;;;;;;5045099;28;20451;-62
2024/01/11 08:15:10;;;;;;;107.70;101.40;;;;;;;;;;5044044;28;21014;-62
2024/01/11 08:17:38;;;;;;;113.53;106.95;;;;;;;;;;5042725;28;20470;-62
2024/01/11 08:20:08;;;;;;;116.95;110.20;;;;;;;;;;5043846;28;20435;-62
2024/01/11 08:22:36;;;;;;;114.78;108.20;;;;;;;;;;5043801;28;20942;-62
2024/01/11 08:25:04;;;;;;;103.47;97.45;;;;;;;;;;5044837;28;20483;-62
2024/01/11 08:27:33;;;;;;;110.45;104.28;;;;;;;;;;5042253;28;21420;-62
2024/01/11 08:30:00;;;;;;;109.80;103.50;;;;;;;;;;5035641;28;20425;-62
2024/01/11 08:32:30;;;;;;;111.72;105.28;;;;;;;;;;5033659;28;20438;-62
2024/01/11 08:35:02;;;;;;;114.97;108.55;;;;;;;;;;5040609;28;20913;-62
2024/01/11 08:37:32;;;;;;;117.60;111.00;;;;;;;;;;5037365;28;20426;-62
2024/01/11 08:39:59;;;;;;;90.38;85.25;;;;;;;;;;5039255;28;20441;-62
2024/01/11 08:42:26;;;;;;;110.63;104.57;;;;;;;;;;5039139;28;20509;-62
2024/01/11 08:44:53;;;;;;;109.25;101.93;;;;;;;;;;5033946;28;20509;-62
2024/01/11 08:47:20;;;;;;;113.82;107.32;;;;;;;;;;5037458;28;20426;-62
2024/01/11 08:49:51;;;;;;;118.15;111.47;;;;;;;;;;5028856;28;20454;-62
2024/01/11 08:52:18;;;;;;;109.90;103.55;;;;;;;;;;5046977;28;20436;-62
2024/01/11 08:54:45;;;;;;;122.88;115.82;;;;;;;;;;5036735;28;20898;-62
2024/01/11 08:57:12;;;;;;;102.47;96.80;;;;;;;;;;5037821;28;20530;-62
2024/01/11 08:59:39;;;;;;;109.10;103.13;;;;;;;;;;5031329;28;20434;-62
2024/01/11 09:02:07;;;;;;;116.67;109.87;;;;;;;;;;5033086;28;20489;-62
2024/01/11 09:04:44;;;;;;;108.93;102.65;;;;;;;;;;5041597;28;20931;-62
2024/01/11 09:07:11;;;;;;;105.03;99.05;;;;;;;;;;5043608;28;20562;-62
2024/01/11 09:09:38;;;;;;;126.07;119.07;;;;;;;;;;5034994;28;20517;-62
2024/01/11 09:12:20;;;;;;;135.88;128.07;;;;;;;;;;5041927;28;20937;-62
2024/01/11 09:14:47;;;;;;;120.88;113.97;;;;;;;;;;5045244;28;20916;-62
2024/01/11 09:17:14;;;;;;;136.13;127.93;;;;;;;;;;5045219;28;20461;-62
2024/01/11 09:19:41;;;;;;;135.93;126.43;;;;;;;;;;5047656;28;20427;-62
2024/01/11 09:22:12;;;;;;;140.85;132.45;;;;;;;;;;5049278;28;20526;-62
2024/01/11 09:24:39;;;;;;;140.35;131.85;;;;;;;;;;5034381;28;20486;-62
2024/01/11 09:27:07;;;;;;;143.88;135.43;;;;;;;;;;5029392;28;20504;-63
2024/01/11 09:29:34;;;;;;;147.80;138.73;;;;;;;;;;5037983;28;20432;-62
2024/01/11 09:32:05;;;;;;;139.47;130.67;;;;;;;;;;5038060;28;20699;-62
2024/01/11 09:34:35;;;;;;;125.47;117.67;;;;;;;;;;5036663;28;20425;-62
2024/01/11 09:37:03;;;;;;;127.45;118.88;;;;;;;;;;5037001;28;20434;-63
2024/01/11 09:39:30;;;;;;;102.77;97.00;;;;;;;;;;5041934;28;20443;-62
2024/01/11 09:41:59;;;;;;;122.35;115.30;;;;;;;;;;5031476;28;20512;-62
2024/01/11 09:44:26;;;;;;;122.63;115.68;;;;;;;;;;5043894;28;20875;-62
2024/01/11 09:46:54;;;;;;;126.25;118.70;;;;;;;;;;5047634;28;20447;-62
2024/01/11 09:49:26;;;;;;;135.55;127.30;;;;;;;;;;5041449;28;20439;-62
2024/01/11 09:51:56;;;;;;;124.43;117.30;;;;;;;;;;5039946;28;20438;-62
2024/01/11 09:54:25;;;;;;;132.20;124.78;;;;;;;;;;5034779;28;20902;-61
2024/01/11 09:56:53;;;;;;;122.68;115.03;;;;;;;;;;5040807;28;20434;-61
2024/01/11 09:59:24;;;;;;;122.15;113.72;;;;;;;;;;5034613;28;20440;-61
2024/01/11 10:01:52;;;;;;;119.60;112.70;;;;;;;;;;5038650;28;20429;-61
2024/01/11 10:04:20;;;;;;;124.20;117.00;;;;;;;;;;5045149;28;20524;-61
2024/01/11 10:06:48;;;;;;;131.88;124.28;;;;;;;;;;5037582;28;20456;-61
2024/01/11 10:09:16;;;;;;;136.88;128.88;;;;;;;;;;5036345;28;20431;-61
2024/01/11 10:11:44;;;;;;;128.77;121.05;;;;;;;;;;5045130;28;20942;-61
2024/01/11 10:14:12;;;;;;;123.13;115.87;;;;;;;;;;5036539;28;20451;-61
2024/01/11 10:16:42;;;;;;;124.50;117.28;;;;;;;;;;5031168;28;20431;-61
2024/01/11 10:19:10;;;;;;;131.25;123.63;;;;;;;;;;5037914;28;20988;-61
2024/01/11 10:21:41;;;;;;;121.97;114.75;;;;;;;;;;5043004;28;20433;-61
2024/01/11 10:24:08;;;;;;;118.22;111.53;;;;;;;;;;5035876;28;20433;-61
2024/01/11 10:26:36;;;;;;;120.65;112.93;;;;;;;;;;5041163;28;20421;-61
2024/01/11 10:29:05;;;;;;;113.82;107.03;;;;;;;;;;5038628;28;20428;-61
2024/01/11 10:31:34;;;;;;;134.80;126.25;;;;;;;;;;5037023;28;20439;-61
2024/01/11 10:34:02;;;;;;;121.68;114.60;;;;;;;;;;5048260;28;21215;-61
2024/01/11 10:36:31;;;;;;;122.43;114.82;;;;;;;;;;5034339;28;20425;-61
2024/01/11 10:39:04;;;;;;;111.57;105.38;;;;;;;;;;5044765;28;20431;-61
2024/01/11 10:41:33;;;;;;;121.45;114.07;;;;;;;;;;5044158;28;20436;-62
2024/01/11 10:44:01;;;;;;;129.02;120.82;;;;;;;;;;5040382;28;20433;-62
2024/01/11 10:46:29;;;;;;;112.60;106.10;;;;;;;;;;5037428;28;20426;-62
2024/01/11 10:48:57;;;;;;;92.90;87.47;;;;;;;;;;5046792;28;20463;-61
2024/01/11 10:51:26;;;;;;;89.72;84.22;;;;;;;;;;5038369;28;20778;-62
2024/01/11 10:53:53;;;;;;;110.68;104.20;;;;;;;;;;5043289;28;20463;-61
2024/01/11 10:56:21;;;;;;;110.57;103.95;;;;;;;;;;5042263;28;20429;-61
2024/01/11 10:58:48;;;;;;;101.00;95.20;;;;;;;;;;5035197;28;20522;-61
2024/01/11 11:01:17;;;;;;;110.32;103.97;;;;;;;;;;5037440;28;20439;-62
2024/01/11 11:03:44;;;;;;;106.90;100.80;;;;;;;;;;5036335;28;20440;-61
2024/01/11 11:06:12;;;;;;;113.32;106.82;;;;;;;;;;5035057;28;20426;-61
2024/01/11 11:08:42;;;;;;;110.15;103.95;;;;;;;;;;5043022;28;20494;-61
2024/01/11 11:11:10;;;;;;;100.75;94.93;;;;;;;;;;5032739;28;21252;-61
2024/01/11 11:13:38;;;;;;;105.43;99.38;;;;;;;;;;5035838;28;20441;-61
2024/01/11 11:16:05;;;;;;;99.68;93.93;;;;;;;;;;5040602;28;21171;-62
2024/01/11 11:18:37;;;;;;;104.55;98.80;;;;;;;;;;5034518;28;20520;-61
2024/01/11 11:21:11;;;;;;;103.30;97.38;;;;;;;;;;5042956;28;20517;-62
2024/01/11 11:23:46;;;;;;;100.03;94.32;;;;;;;;;;5044475;28;20804;-62
2024/01/11 11:26:17;;;;;;;110.03;103.93;;;;;;;;;;5039252;28;20432;-62
2024/01/11 11:28:50;;;;;;;131.63;123.90;;;;;;;;;;5038883;28;20427;-61
2024/01/11 11:31:36;;;;;;;116.50;109.83;;;;;;;;;;5041336;28;20460;-62
2024/01/11 11:34:04;;;;;;;107.03;101.05;;;;;;;;;;5038435;28;20441;-61
2024/01/11 11:36:33;;;;;;;108.90;102.72;;;;;;;;;;5034126;28;20462;-62
2024/01/11 11:39:01;;;;;;;98.32;92.75;;;;;;;;;;5040296;28;20454;-61
2024/01/11 11:41:31;;;;;;;101.45;95.68;;;;;;;;;;5039913;28;20539;-61
2024/01/11 11:44:02;;;;;;;125.13;117.90;;;;;;;;;;5038430;28;20919;-61
2024/01/11 11:46:31;;;;;;;115.68;109.35;;;;;;;;;;5044008;28;20486;-61
2024/01/11 11:48:58;;;;;;;113.32;107.03;;;;;;;;;;5029489;28;20427;-61
2024/01/11 11:51:26;;;;;;;116.00;109.32;;;;;;;;;;5045480;28;20435;-61
2024/01/11 11:53:55;;;;;;;121.30;114.55;;;;;;;;;;5043590;28;20437;-62
2024/01/11 11:56:23;;;;;;;120.00;113.18;;;;;;;;;;5039577;28;20461;-61
2024/01/11 11:58:54;;;;;;;126.47;119.53;;;;;;;;;;5039765;28;20869;-62
2024/01/11 12:01:23;;;;;;;122.25;115.70;;;;;;;;;;5035722;28;20589;-61
2024/01/11 12:03:53;;;;;;;107.50;101.30;;;;;;;;;;5044853;28;20573;-61
2024/01/11 12:06:24;;;;;;;105.25;98.95;;;;;;;;;;5038007;28;20453;-61
2024/01/11 12:08:52;;;;;;;124.85;117.75;;;;;;;;;;5043791;28;20534;-61
2024/01/11 12:11:24;;;;;;;115.70;108.78;;;;;;;;;;5035054;28;21274;-62
2024/01/11 12:13:53;;;;;;;121.75;114.88;;;;;;;;;;5035509;28;20434;-61
2024/01/11 12:16:20;;;;;;;114.80;108.27;;;;;;;;;;5044149;28;20480;-61
2024/01/11 12:18:49;;;;;;;124.40;117.30;;;;;;;;;;5036090;28;20936;-61
2024/01/11 12:21:17;;;;;;;117.03;110.20;;;;;;;;;;5045507;28;20440;-63
2024/01/11 12:23:44;;;;;;;129.93;122.50;;;;;;;;;;5037831;28;20524;-61
2024/01/11 12:26:12;;;;;;;125.85;118.47;;;;;;;;;;5040176;28;20515;-61
2024/01/11 12:28:42;;;;;;;119.78;113.03;;;;;;;;;;5041800;28;20424;-60
2024/01/11 12:31:10;;;;;;;118.05;111.25;;;;;;;;;;5035490;28;20431;-61
2024/01/11 12:33:38;;;;;;;131.18;123.07;;;;;;;;;;5038378;28;20516;-61
2024/01/11 12:36:07;;;;;;;106.18;99.95;;;;;;;;;;5038315;28;20435;-61
2024/01/11 12:38:35;;;;;;;128.20;120.78;;;;;;;;;;5041578;28;20433;-61
2024/01/11 12:41:03;;;;;;;112.43;106.03;;;;;;;;;;5038993;28;20491;-61
2024/01/11 12:43:31;;;;;;;121.65;114.43;;;;;;;;;;5031758;28;20434;-60
2024/01/11 12:45:58;;;;;;;117.88;111.00;;;;;;;;;;5040328;28;20432;-62
2024/01/11 12:48:29;;;;;;;126.25;119.57;;;;;;;;;;5038842;28;20467;-60
2024/01/11 12:50:59;;;;;;;116.25;109.70;;;;;;;;;;5034906;28;20433;-60
2024/01/11 12:53:45;;;;;;;118.80;111.68;;;;;;;;;;5029881;28;20971;-61
2024/01/11 12:56:15;;;;;;;109.90;103.78;;;;;;;;;;5036828;28;20437;-60
2024/01/11 12:58:43;;;;;;;110.78;104.72;;;;;;;;;;5034320;28;21007;-59
2024/01/11 13:01:11;;;;;;;114.70;108.30;;;;;;;;;;5038096;28;20421;-61
2024/01/11 13:03:39;;;;;;;111.45;105.15;;;;;;;;;;5038828;28;20433;-61
2024/01/11 13:06:08;;;;;;;118.43;112.03;;;;;;;;;;5039578;28;20506;-60
2024/01/11 13:08:37;;;;;;;125.35;118.43;;;;;;;;;;5032820;28;20427;-60
2024/01/11 13:11:07;;;;;;;112.65;106.50;;;;;;;;;;5046720;28;20425;-60
2024/01/11 13:13:38;;;;;;;125.43;118.55;;;;;;;;;;5029697;28;20438;-61
2024/01/11 13:16:14;;;;;;;125.05;118.13;;;;;;;;;;5040592;28;20497;-61
2024/01/11 13:18:41;;;;;;;113.28;106.55;;;;;;;;;;5031528;28;20434;-61
2024/01/11 13:21:09;;;;;;;106.47;100.50;;;;;;;;;;5037670;28;20432;-61
2024/01/11 13:23:37;;;;;;;94.43;89.10;;;;;;;;;;5037902;28;20450;-61
2024/01/11 13:26:05;;;;;;;113.03;106.78;;;;;;;;;;5033356;28;20428;-61
2024/01/11 13:28:33;;;;;;;114.07;107.53;;;;;;;;;;5041336;28;20475;-61
2024/01/11 13:31:02;;;;;;;141.45;133.43;;;;;;;;;;5036117;28;20433;-61
2024/01/11 13:33:29;;;;;;;144.20;136.77;;;;;;;;;;5037966;28;21064;-60
2024/01/11 13:35:56;;;;;;;148.70;140.93;;;;;;;;;;5040571;28;20782;-61
2024/01/11 13:38:27;;;;;;;139.10;131.63;;;;;;;;;;5032259;28;20445;-60
2024/01/11 13:40:54;;;;;;;155.77;147.40;;;;;;;;;;5039066;28;20802;-60
2024/01/11 13:43:21;;;;;;;112.57;105.82;;;;;;;;;;5050229;28;20440;-62
2024/01/11 13:45:49;;;;;;;100.45;94.65;;;;;;;;;;5031855;28;20462;-60
2024/01/11 13:48:16;;;;;;;99.60;93.90;;;;;;;;;;5042644;28;20425;-60
2024/01/11 13:50:44;;;;;;;108.03;101.97;;;;;;;;;;5042755;28;20424;-61
2024/01/11 13:53:11;;;;;;;94.05;88.85;;;;;;;;;;5034908;28;20518;-60
2024/01/11 13:55:39;;;;;;;111.10;104.68;;;;;;;;;;5041216;28;20433;-60
2024/01/11 13:58:07;;;;;;;116.35;109.03;;;;;;;;;;5035362;28;20951;-60
2024/01/11 14:00:35;;;;;;;123.97;116.78;;;;;;;;;;5042674;28;20496;-60